sensor_id;sensor_type;location;lat;lon;timestamp;pressure;altitude;pressure_sealevel;temperature;humidity
60852;BME280;48553;50.766;2.900;2023-01-28T00:02:42;102225.78;;;4.26;87.02
60852;BME280;48553;50.766;2.900;2023-01-28T00:05:43;102223.31;;;4.24;86.59
60852;BME280;48553;50.766;2.900;2023-01-28T00:08:43;102232.78;;;4.22;86.58
60852;BME280;48553;50.766;2.900;2023-01-28T00:11:44;102226.28;;;4.23;86.77
60852;BME280;48553;50.766;2.900;2023-01-28T00:14:44;102236.88;;;4.24;86.71
60852;BME280;48553;50.766;2.900;2023-01-28T00:17:48;102242.31;;;4.24;86.75
60852;BME280;48553;50.766;2.900;2023-01-28T00:20:59;102226.28;;;4.23;86.83
60852;BME280;48553;50.766;2.900;2023-01-28T00:23:59;102227.34;;;4.22;86.83
60852;BME280;48553;50.766;2.900;2023-01-28T00:27:00;102232.78;;;4.22;86.87
60852;BME280;48553;50.766;2.900;2023-01-28T00:30:00;102237.97;;;4.23;86.76
60852;BME280;48553;50.766;2.900;2023-01-28T00:33:01;102237.97;;;4.23;86.99
60852;BME280;48553;50.766;2.900;2023-01-28T00:36:03;102249.06;;;4.22;87.22
60852;BME280;48553;50.766;2.900;2023-01-28T00:39:05;102234.94;;;4.19;87.20
60852;BME280;48553;50.766;2.900;2023-01-28T00:42:06;102241.16;;;4.20;87.18
60852;BME280;48553;50.766;2.900;2023-01-28T00:45:06;102234.94;;;4.19;87.21
60852;BME280;48553;50.766;2.900;2023-01-28T00:48:07;102240.63;;;4.18;87.25
60852;BME280;48553;50.766;2.900;2023-01-28T00:51:09;102237.66;;;4.19;87.24
60852;BME280;48553;50.766;2.900;2023-01-28T00:54:11;102241.69;;;4.17;87.24
60852;BME280;48553;50.766;2.900;2023-01-28T00:57:12;102248.50;;;4.19;87.28
60852;BME280;48553;50.766;2.900;2023-01-28T01:00:13;102247.69;;;4.19;87.34
60852;BME280;48553;50.766;2.900;2023-01-28T01:03:14;102231.09;;;4.15;87.31
60852;BME280;48553;50.766;2.900;2023-01-28T01:06:15;102234.63;;;4.16;87.51
60852;BME280;48553;50.766;2.900;2023-01-28T01:09:15;102235.22;;;4.18;87.22
60852;BME280;48553;50.766;2.900;2023-01-28T01:12:16;102227.31;;;4.16;87.58
60852;BME280;48553;50.766;2.900;2023-01-28T01:15:17;102219.97;;;4.17;87.41
60852;BME280;48553;50.766;2.900;2023-01-28T01:18:18;102229.22;;;4.16;87.32
60852;BME280;48553;50.766;2.900;2023-01-28T01:21:21;102231.09;;;4.15;87.27
60852;BME280;48553;50.766;2.900;2023-01-28T01:24:22;102219.13;;;4.11;87.64
60852;BME280;48553;50.766;2.900;2023-01-28T01:27:22;102223.22;;;4.14;87.42
60852;BME280;48553;50.766;2.900;2023-01-28T01:30:23;102226.75;;;4.14;87.25
60852;BME280;48553;50.766;2.900;2023-01-28T01:33:24;102223.22;;;4.14;87.35
60852;BME280;48553;50.766;2.900;2023-01-28T01:36:24;102232.97;;;4.15;87.36
60852;BME280;48553;50.766;2.900;2023-01-28T01:39:25;102240.31;;;4.14;87.30
60852;BME280;48553;50.766;2.900;2023-01-28T01:42:25;102234.31;;;4.12;87.34
60852;BME280;48553;50.766;2.900;2023-01-28T01:45:27;102241.88;;;4.10;87.38
60852;BME280;48553;50.766;2.900;2023-01-28T01:48:32;102237.28;;;4.11;87.46
60852;BME280;48553;50.766;2.900;2023-01-28T01:51:35;102245.41;;;4.11;87.50
60852;BME280;48553;50.766;2.900;2023-01-28T01:54:37;102249.22;;;4.10;87.37
60852;BME280;48553;50.766;2.900;2023-01-28T01:57:40;102236.47;;;4.10;87.28
60852;BME280;48553;50.766;2.900;2023-01-28T02:00:42;102244.59;;;4.10;87.51
60852;BME280;48553;50.766;2.900;2023-01-28T02:07:02;102246.75;;;4.08;87.32
60852;BME280;48553;50.766;2.900;2023-01-28T02:10:03;102253.50;;;4.06;87.33
60852;BME280;48553;50.766;2.900;2023-01-28T02:13:04;102254.31;;;4.06;87.31
60852;BME280;48553;50.766;2.900;2023-01-28T02:16:06;102254.88;;;4.08;87.19
60852;BME280;48553;50.766;2.900;2023-01-28T02:19:06;102244.31;;;4.07;87.16
60852;BME280;48553;50.766;2.900;2023-01-28T02:22:25;102264.34;;;4.06;87.31
60852;BME280;48553;50.766;2.900;2023-01-28T02:26:01;102251.88;;;4.05;87.35
60852;BME280;48553;50.766;2.900;2023-01-28T02:29:16;102254.31;;;4.06;87.27
60852;BME280;48553;50.766;2.900;2023-01-28T02:32:41;102248.31;;;4.04;87.40
60852;BME280;48553;50.766;2.900;2023-01-28T02:35:53;102248.59;;;4.03;87.53
60852;BME280;48553;50.766;2.900;2023-01-28T02:38:58;102249.41;;;4.03;87.35
60852;BME280;48553;50.766;2.900;2023-01-28T02:42:08;102239.38;;;4.04;87.34
60852;BME280;48553;50.766;2.900;2023-01-28T02:45:31;102239.13;;;4.05;87.43
60852;BME280;48553;50.766;2.900;2023-01-28T02:48:51;102246.69;;;4.03;87.09
60852;BME280;48553;50.766;2.900;2023-01-28T02:55:11;102247.78;;;4.02;87.32
60852;BME280;48553;50.766;2.900;2023-01-28T03:01:53;102248.03;;;4.01;87.25
60852;BME280;48553;50.766;2.900;2023-01-28T03:05:10;102250.19;;;3.98;87.23
60852;BME280;48553;50.766;2.900;2023-01-28T03:08:16;102258.06;;;4.00;87.12
60852;BME280;48553;50.766;2.900;2023-01-28T03:11:39;102250.19;;;3.98;87.34
60852;BME280;48553;50.766;2.900;2023-01-28T03:15:03;102260.50;;;4.02;87.37
60852;BME280;48553;50.766;2.900;2023-01-28T03:18:29;102252.06;;;3.98;87.43
60852;BME280;48553;50.766;2.900;2023-01-28T03:21:51;102263.75;;;3.98;87.44
60852;BME280;48553;50.766;2.900;2023-01-28T03:25:10;102266.44;;;3.98;87.50
60852;BME280;48553;50.766;2.900;2023-01-28T03:28:30;102261.03;;;3.98;87.49
60852;BME280;48553;50.766;2.900;2023-01-28T03:31:51;102275.69;;;3.97;87.33
60852;BME280;48553;50.766;2.900;2023-01-28T03:35:14;102265.06;;;3.96;87.12
60852;BME280;48553;50.766;2.900;2023-01-28T03:38:35;102264.81;;;3.97;87.07
60852;BME280;48553;50.766;2.900;2023-01-28T03:41:41;102266.69;;;3.97;87.26
60852;BME280;48553;50.766;2.900;2023-01-28T03:44:41;102261.53;;;3.95;87.25
60852;BME280;48553;50.766;2.900;2023-01-28T03:47:55;102269.69;;;3.95;87.24
60852;BME280;48553;50.766;2.900;2023-01-28T03:50:56;102282.41;;;3.95;87.42
60852;BME280;48553;50.766;2.900;2023-01-28T03:53:58;102279.16;;;3.93;87.31
60852;BME280;48553;50.766;2.900;2023-01-28T03:56:58;102280.22;;;3.92;87.47
60852;BME280;48553;50.766;2.900;2023-01-28T03:59:58;102276.44;;;3.93;87.42
60852;BME280;48553;50.766;2.900;2023-01-28T04:03:00;102276.44;;;3.93;87.55
60852;BME280;48553;50.766;2.900;2023-01-28T04:06:03;102278.06;;;3.94;87.41
60852;BME280;48553;50.766;2.900;2023-01-28T04:09:04;102284.00;;;3.91;87.23
60852;BME280;48553;50.766;2.900;2023-01-28T04:12:05;102286.72;;;3.91;87.35
60852;BME280;48553;50.766;2.900;2023-01-28T04:15:06;102277.50;;;3.92;87.37
60852;BME280;48553;50.766;2.900;2023-01-28T04:18:14;102286.72;;;3.91;87.34
60852;BME280;48553;50.766;2.900;2023-01-28T04:21:15;102285.63;;;3.92;87.60
60852;BME280;48553;50.766;2.900;2023-01-28T04:24:15;102280.72;;;3.89;87.54
60852;BME280;48553;50.766;2.900;2023-01-28T04:27:16;102286.97;;;3.89;87.53
60852;BME280;48553;50.766;2.900;2023-01-28T04:30:16;102278.00;;;3.89;87.62
60852;BME280;48553;50.766;2.900;2023-01-28T04:33:17;102284.00;;;3.91;87.63
60852;BME280;48553;50.766;2.900;2023-01-28T04:36:17;102276.09;;;3.89;87.39
60852;BME280;48553;50.766;2.900;2023-01-28T04:39:18;102283.44;;;3.89;87.50
60852;BME280;48553;50.766;2.900;2023-01-28T04:42:18;102290.47;;;3.90;87.41
60852;BME280;48553;50.766;2.900;2023-01-28T04:45:19;102291.81;;;3.87;87.50
60852;BME280;48553;50.766;2.900;2023-01-28T04:48:19;102281.78;;;3.88;87.46
60852;BME280;48553;50.766;2.900;2023-01-28T04:51:19;102284.50;;;3.88;87.31
60852;BME280;48553;50.766;2.900;2023-01-28T04:54:20;102274.97;;;3.85;87.38
60852;BME280;48553;50.766;2.900;2023-01-28T04:57:20;102288.53;;;3.85;87.51
60852;BME280;48553;50.766;2.900;2023-01-28T05:00:21;102291.00;;;3.87;87.46
60852;BME280;48553;50.766;2.900;2023-01-28T05:03:22;102287.72;;;3.85;87.39
60852;BME280;48553;50.766;2.900;2023-01-28T05:06:23;102302.31;;;3.84;87.43
60852;BME280;48553;50.766;2.900;2023-01-28T05:09:23;102295.84;;;3.85;86.97
60852;BME280;48553;50.766;2.900;2023-01-28T05:12:23;102298.00;;;3.83;87.18
60852;BME280;48553;50.766;2.900;2023-01-28T05:15:24;102297.19;;;3.82;86.90
60852;BME280;48553;50.766;2.900;2023-01-28T05:18:24;102297.41;;;3.81;87.07
60852;BME280;48553;50.766;2.900;2023-01-28T05:21:25;102289.84;;;3.83;87.05
60852;BME280;48553;50.766;2.900;2023-01-28T05:24:26;102297.41;;;3.81;86.90
60852;BME280;48553;50.766;2.900;2023-01-28T05:27:26;102292.00;;;3.81;86.91
60852;BME280;48553;50.766;2.900;2023-01-28T05:30:27;102290.94;;;3.82;86.97
60852;BME280;48553;50.766;2.900;2023-01-28T05:33:27;102297.41;;;3.81;87.01
60852;BME280;48553;50.766;2.900;2023-01-28T05:36:27;102286.56;;;3.81;87.11
60852;BME280;48553;50.766;2.900;2023-01-28T05:39:28;102286.81;;;3.79;86.95
60852;BME280;48553;50.766;2.900;2023-01-28T05:42:28;102296.59;;;3.80;86.98
60852;BME280;48553;50.766;2.900;2023-01-28T05:45:29;102294.13;;;3.79;86.90
60852;BME280;48553;50.766;2.900;2023-01-28T05:48:29;102289.53;;;3.79;87.02
60852;BME280;48553;50.766;2.900;2023-01-28T05:51:30;102292.50;;;3.78;86.81
60852;BME280;48553;50.766;2.900;2023-01-28T05:54:30;102297.94;;;3.78;86.94
60852;BME280;48553;50.766;2.900;2023-01-28T05:57:30;102300.66;;;3.78;86.72
60852;BME280;48553;50.766;2.900;2023-01-28T06:00:31;102294.09;;;3.73;86.67
60852;BME280;48553;50.766;2.900;2023-01-28T06:03:31;102298.69;;;3.73;86.67
60852;BME280;48553;50.766;2.900;2023-01-28T06:06:32;102293.00;;;3.74;86.59
60852;BME280;48553;50.766;2.900;2023-01-28T06:09:32;102296.78;;;3.73;86.88
60852;BME280;48553;50.766;2.900;2023-01-28T06:12:33;102289.75;;;3.72;86.89
60852;BME280;48553;50.766;2.900;2023-01-28T06:15:33;102294.88;;;3.74;86.97
60852;BME280;48553;50.766;2.900;2023-01-28T06:18:34;102292.19;;;3.74;86.88
60852;BME280;48553;50.766;2.900;2023-01-28T06:21:34;102283.75;;;3.70;86.93
60852;BME280;48553;50.766;2.900;2023-01-28T06:24:34;102294.59;;;3.70;86.96
60852;BME280;48553;50.766;2.900;2023-01-28T06:27:35;102286.47;;;3.70;86.94
60852;BME280;48553;50.766;2.900;2023-01-28T06:30:35;102288.09;;;3.71;86.82
60852;BME280;48553;50.766;2.900;2023-01-28T06:33:36;102296.72;;;3.68;86.81
60852;BME280;48553;50.766;2.900;2023-01-28T06:36:36;102307.56;;;3.68;86.85
60852;BME280;48553;50.766;2.900;2023-01-28T06:39:37;102297.78;;;3.67;86.91
60852;BME280;48553;50.766;2.900;2023-01-28T06:42:37;102305.34;;;3.65;87.02
60852;BME280;48553;50.766;2.900;2023-01-28T06:45:38;102304.28;;;3.66;86.96
60852;BME280;48553;50.766;2.900;2023-01-28T06:48:38;102304.03;;;3.68;86.96
60852;BME280;48553;50.766;2.900;2023-01-28T06:51:38;102318.66;;;3.67;87.05
60852;BME280;48553;50.766;2.900;2023-01-28T06:54:39;102312.44;;;3.66;86.96
60852;BME280;48553;50.766;2.900;2023-01-28T06:57:40;102311.84;;;3.64;86.94
60852;BME280;48553;50.766;2.900;2023-01-28T07:00:40;102303.47;;;3.66;86.99
60852;BME280;48553;50.766;2.900;2023-01-28T07:03:41;102306.44;;;3.64;86.97
60852;BME280;48553;50.766;2.900;2023-01-28T07:06:41;102301.25;;;3.63;86.96
60852;BME280;48553;50.766;2.900;2023-01-28T07:09:42;102309.16;;;3.64;87.41
60852;BME280;48553;50.766;2.900;2023-01-28T07:12:42;102318.09;;;3.65;87.00
60852;BME280;48553;50.766;2.900;2023-01-28T07:15:42;102330.81;;;3.64;87.02
60852;BME280;48553;50.766;2.900;2023-01-28T07:18:43;102328.13;;;3.64;86.94
60852;BME280;48553;50.766;2.900;2023-01-28T07:21:43;102330.25;;;3.62;86.87
60852;BME280;48553;50.766;2.900;2023-01-28T07:24:44;102326.47;;;3.63;86.90
60852;BME280;48553;50.766;2.900;2023-01-28T07:27:51;102324.59;;;3.64;86.94
60852;BME280;48553;50.766;2.900;2023-01-28T07:30:52;102335.69;;;3.62;87.04
60852;BME280;48553;50.766;2.900;2023-01-28T07:33:53;102327.53;;;3.62;86.89
60852;BME280;48553;50.766;2.900;2023-01-28T07:36:53;102330.78;;;3.59;86.94
60852;BME280;48553;50.766;2.900;2023-01-28T07:39:54;102323.44;;;3.60;86.87
60852;BME280;48553;50.766;2.900;2023-01-28T07:42:54;102337.81;;;3.60;87.14
60852;BME280;48553;50.766;2.900;2023-01-28T07:45:59;102334.28;;;3.60;86.99
60852;BME280;48553;50.766;2.900;2023-01-28T07:49:00;102335.09;;;3.60;87.06
60852;BME280;48553;50.766;2.900;2023-01-28T07:52:01;102329.91;;;3.59;86.91
60852;BME280;48553;50.766;2.900;2023-01-28T07:55:01;102336.44;;;3.58;87.14
60852;BME280;48553;50.766;2.900;2023-01-28T07:58:04;102335.34;;;3.59;87.01
60852;BME280;48553;50.766;2.900;2023-01-28T08:01:04;102338.06;;;3.59;86.97
60852;BME280;48553;50.766;2.900;2023-01-28T08:04:05;102337.81;;;3.60;86.92
60852;BME280;48553;50.766;2.900;2023-01-28T08:07:05;102333.47;;;3.59;86.94
60852;BME280;48553;50.766;2.900;2023-01-28T08:10:06;102332.97;;;3.62;87.08
60852;BME280;48553;50.766;2.900;2023-01-28T08:13:08;102332.16;;;3.62;87.08
60852;BME280;48553;50.766;2.900;2023-01-28T08:16:09;102338.38;;;3.62;87.28
60852;BME280;48553;50.766;2.900;2023-01-28T08:19:09;102340.59;;;3.65;87.10
60852;BME280;48553;50.766;2.900;2023-01-28T08:22:10;102341.16;;;3.67;87.42
60852;BME280;48553;50.766;2.900;2023-01-28T08:25:10;102345.53;;;3.68;87.30
60852;BME280;48553;50.766;2.900;2023-01-28T08:28:12;102352.81;;;3.68;87.51
60852;BME280;48553;50.766;2.900;2023-01-28T08:31:13;102363.19;;;3.71;87.52
60852;BME280;48553;50.766;2.900;2023-01-28T08:34:13;102353.97;;;3.72;87.56
60852;BME280;48553;50.766;2.900;2023-01-28T08:37:13;102373.28;;;3.75;87.60
60852;BME280;48553;50.766;2.900;2023-01-28T08:40:14;102372.19;;;3.76;87.57
60852;BME280;48553;50.766;2.900;2023-01-28T08:43:15;102371.16;;;3.78;87.62
60852;BME280;48553;50.766;2.900;2023-01-28T08:46:15;102379.28;;;3.78;87.49
60852;BME280;48553;50.766;2.900;2023-01-28T08:49:16;102384.44;;;3.79;87.62
60852;BME280;48553;50.766;2.900;2023-01-28T08:52:16;102381.72;;;3.79;87.53
60852;BME280;48553;50.766;2.900;2023-01-28T08:55:16;102391.75;;;3.79;87.45
60852;BME280;48553;50.766;2.900;2023-01-28T08:58:18;102400.47;;;3.81;87.50
60852;BME280;48553;50.766;2.900;2023-01-28T09:01:18;102396.94;;;3.80;87.58
60852;BME280;48553;50.766;2.900;2023-01-28T09:04:19;102404.84;;;3.82;87.58
60852;BME280;48553;50.766;2.900;2023-01-28T09:07:19;102402.13;;;3.82;87.65
60852;BME280;48553;50.766;2.900;2023-01-28T09:10:20;102402.94;;;3.82;87.61
60852;BME280;48553;50.766;2.900;2023-01-28T09:13:21;102409.19;;;3.83;87.43
60852;BME280;48553;50.766;2.900;2023-01-28T09:16:21;102414.09;;;3.86;87.60
60852;BME280;48553;50.766;2.900;2023-01-28T09:19:22;102419.84;;;3.89;87.45
60852;BME280;48553;50.766;2.900;2023-01-28T09:22:22;102412.53;;;3.90;87.36
60852;BME280;48553;50.766;2.900;2023-01-28T09:25:23;102425.84;;;3.91;87.33
60852;BME280;48553;50.766;2.900;2023-01-28T09:28:23;102410.72;;;3.95;87.45
60852;BME280;48553;50.766;2.900;2023-01-28T09:31:24;102420.56;;;4.02;87.27
60852;BME280;48553;50.766;2.900;2023-01-28T09:34:25;102412.81;;;4.10;86.99
60852;BME280;48553;50.766;2.900;2023-01-28T09:37:25;102412.88;;;4.15;86.83
60852;BME280;48553;50.766;2.900;2023-01-28T09:40:33;102414.78;;;4.15;86.49
60852;BME280;48553;50.766;2.900;2023-01-28T09:43:53;102412.69;;;4.22;86.33
60852;BME280;48553;50.766;2.900;2023-01-28T09:47:03;102405.44;;;4.28;86.17
60852;BME280;48553;50.766;2.900;2023-01-28T09:50:13;102415.72;;;4.26;86.30
60852;BME280;48553;50.766;2.900;2023-01-28T09:53:20;102425.50;;;4.27;86.26
60852;BME280;48553;50.766;2.900;2023-01-28T09:56:29;102418.78;;;4.29;86.10
60852;BME280;48553;50.766;2.900;2023-01-28T09:59:33;102421.03;;;4.37;85.74
60852;BME280;48553;50.766;2.900;2023-01-28T10:02:48;102413.03;;;4.48;85.44
60852;BME280;48553;50.766;2.900;2023-01-28T10:13:30;102438.28;;;4.48;85.73
60852;BME280;48553;50.766;2.900;2023-01-28T10:17:03;102436.88;;;4.46;85.63
60852;BME280;48553;50.766;2.900;2023-01-28T10:23:25;102452.59;;;4.44;86.00
60852;BME280;48553;50.766;2.900;2023-01-28T10:26:33;102453.41;;;4.44;85.94
60852;BME280;48553;50.766;2.900;2023-01-28T10:29:35;102453.75;;;4.48;85.96
60852;BME280;48553;50.766;2.900;2023-01-28T10:32:44;102444.75;;;4.47;85.61
60852;BME280;48553;50.766;2.900;2023-01-28T10:35:47;102441.22;;;4.47;85.67
60852;BME280;48553;50.766;2.900;2023-01-28T10:38:48;102447.47;;;4.47;85.79
60852;BME280;48553;50.766;2.900;2023-01-28T10:41:49;102450.75;;;4.49;85.63
60852;BME280;48553;50.766;2.900;2023-01-28T10:44:49;102448.03;;;4.49;85.62
60852;BME280;48553;50.766;2.900;2023-01-28T10:48:06;102442.38;;;4.51;85.72
60852;BME280;48553;50.766;2.900;2023-01-28T10:51:08;102445.41;;;4.54;85.62
60852;BME280;48553;50.766;2.900;2023-01-28T10:57:17;102443.53;;;4.55;85.71
60852;BME280;48553;50.766;2.900;2023-01-28T11:00:34;102448.66;;;4.56;85.63
60852;BME280;48553;50.766;2.900;2023-01-28T11:03:36;102434.59;;;4.59;85.52
60852;BME280;48553;50.766;2.900;2023-01-28T11:06:36;102440.63;;;4.62;85.57
60852;BME280;48553;50.766;2.900;2023-01-28T11:09:37;102438.47;;;4.64;85.59
60852;BME280;48553;50.766;2.900;2023-01-28T11:12:39;102430.63;;;4.67;85.75
60852;BME280;48553;50.766;2.900;2023-01-28T11:18:59;102438.28;;;4.70;85.68
60852;BME280;48553;50.766;2.900;2023-01-28T11:22:01;102432.00;;;4.70;85.64
60852;BME280;48553;50.766;2.900;2023-01-28T11:25:12;102427.69;;;4.74;85.71
60852;BME280;48553;50.766;2.900;2023-01-28T11:28:25;102428.03;;;4.77;85.70
60852;BME280;48553;50.766;2.900;2023-01-28T11:31:26;102417.72;;;4.79;85.54
60852;BME280;48553;50.766;2.900;2023-01-28T11:34:30;102423.72;;;4.81;85.63
60852;BME280;48553;50.766;2.900;2023-01-28T11:37:34;102417.22;;;4.82;85.53
60852;BME280;48553;50.766;2.900;2023-01-28T11:40:34;102415.88;;;4.85;85.43
60852;BME280;48553;50.766;2.900;2023-01-28T11:43:35;102417.25;;;4.88;85.27
60852;BME280;48553;50.766;2.900;2023-01-28T11:50:24;102400.72;;;4.89;85.20
60852;BME280;48553;50.766;2.900;2023-01-28T11:56:57;102390.16;;;4.93;85.07
60852;BME280;48553;50.766;2.900;2023-01-28T12:26:28;102323.72;;;5.43;84.22
60852;BME280;48553;50.766;2.900;2023-01-28T12:32:50;102295.28;;;5.66;83.61
60852;BME280;48553;50.766;2.900;2023-01-28T12:42:29;102282.75;;;6.28;83.23
60852;BME280;48553;50.766;2.900;2023-01-28T12:45:38;102285.25;;;6.45;83.06
60852;BME280;48553;50.766;2.900;2023-01-28T12:48:42;102292.63;;;6.50;83.01
60852;BME280;48553;50.766;2.900;2023-01-28T12:51:52;102298.34;;;6.63;82.70
60852;BME280;48553;50.766;2.900;2023-01-28T12:55:05;102304.34;;;6.71;82.75
60852;BME280;48553;50.766;2.900;2023-01-28T12:58:39;102311.16;;;6.78;82.72
60852;BME280;48553;50.766;2.900;2023-01-28T13:05:16;102328.59;;;6.93;81.88
60852;BME280;48553;50.766;2.900;2023-01-28T13:08:24;102337.31;;;6.84;81.17
60852;BME280;48553;50.766;2.900;2023-01-28T13:11:31;102336.50;;;6.74;81.29
60852;BME280;48553;50.766;2.900;2023-01-28T13:14:33;102338.66;;;6.77;80.87
60852;BME280;48553;50.766;2.900;2023-01-28T13:17:34;102340.88;;;6.85;80.80
60852;BME280;48553;50.766;2.900;2023-01-28T13:20:50;102347.94;;;7.01;81.30
60852;BME280;48553;50.766;2.900;2023-01-28T13:27:21;102356.69;;;6.93;80.79
60852;BME280;48553;50.766;2.900;2023-01-28T13:30:26;102364.03;;;6.87;80.06
60852;BME280;48553;50.766;2.900;2023-01-28T13:33:30;102367.00;;;6.76;80.41
60852;BME280;48553;50.766;2.900;2023-01-28T13:36:45;102359.91;;;6.64;81.54
60852;BME280;48553;50.766;2.900;2023-01-28T13:39:53;102360.72;;;6.55;81.47
60852;BME280;48553;50.766;2.900;2023-01-28T13:43:04;102356.59;;;6.47;81.29
60852;BME280;48553;50.766;2.900;2023-01-28T13:46:09;102360.09;;;6.42;81.19
60852;BME280;48553;50.766;2.900;2023-01-28T13:49:15;102363.94;;;6.36;81.36
60852;BME280;48553;50.766;2.900;2023-01-28T13:52:27;102359.28;;;6.32;81.04
60852;BME280;48553;50.766;2.900;2023-01-28T13:55:38;102350.56;;;6.30;81.37
60852;BME280;48553;50.766;2.900;2023-01-28T14:18:59;102302.03;;;6.11;81.88
60852;BME280;48553;50.766;2.900;2023-01-28T14:22:16;102299.03;;;6.07;81.53
60852;BME280;48553;50.766;2.900;2023-01-28T14:25:25;102296.31;;;6.07;82.14
60852;BME280;48553;50.766;2.900;2023-01-28T14:31:50;102291.16;;;6.11;82.22
60852;BME280;48553;50.766;2.900;2023-01-28T14:34:52;102291.97;;;6.06;81.96
60852;BME280;48553;50.766;2.900;2023-01-28T14:37:53;102296.03;;;6.09;82.16
60852;BME280;48553;50.766;2.900;2023-01-28T14:40:54;102294.69;;;6.06;82.03
60852;BME280;48553;50.766;2.900;2023-01-28T14:43:55;102290.06;;;6.12;nan
60852;BME280;48553;50.766;2.900;2023-01-28T15:00:34;102310.72;;;6.08;81.71
60852;BME280;48553;50.766;2.900;2023-01-28T15:03:34;102307.72;;;6.04;81.83
60852;BME280;48553;50.766;2.900;2023-01-28T15:06:35;102308.78;;;5.98;82.13
60852;BME280;48553;50.766;2.900;2023-01-28T15:09:35;102315.31;;;5.97;82.00
60852;BME280;48553;50.766;2.900;2023-01-28T15:12:38;102326.13;;;5.92;82.40
60852;BME280;48553;50.766;2.900;2023-01-28T15:15:40;102322.84;;;5.90;82.40
60852;BME280;48553;50.766;2.900;2023-01-28T15:18:45;102336.19;;;5.86;82.42
60852;BME280;48553;50.766;2.900;2023-01-28T15:21:46;102343.78;;;5.84;82.36
60852;BME280;48553;50.766;2.900;2023-01-28T15:24:46;102351.97;;;5.84;82.25
60852;BME280;48553;50.766;2.900;2023-01-28T15:27:49;102348.13;;;5.80;82.30
60852;BME280;48553;50.766;2.900;2023-01-28T15:30:50;102342.94;;;5.79;82.40
60852;BME280;48553;50.766;2.900;2023-01-28T15:34:18;102339.94;;;5.75;82.21
60852;BME280;48553;50.766;2.900;2023-01-28T15:37:19;102342.91;;;5.69;82.34
60852;BME280;48553;50.766;2.900;2023-01-28T15:40:21;102360.56;;;5.66;82.63
60852;BME280;48553;50.766;2.900;2023-01-28T15:43:25;102368.97;;;5.64;82.51
60852;BME280;48553;50.766;2.900;2023-01-28T15:46:26;102362.41;;;5.60;82.51
60852;BME280;48553;50.766;2.900;2023-01-28T15:49:35;102377.91;;;5.60;82.66
60852;BME280;48553;50.766;2.900;2023-01-28T15:52:38;102365.91;;;5.56;82.73
60852;BME280;48553;50.766;2.900;2023-01-28T15:55:44;102365.66;;;5.52;82.80
60852;BME280;48553;50.766;2.900;2023-01-28T15:58:44;102356.94;;;5.50;83.10
60852;BME280;48553;50.766;2.900;2023-01-28T16:01:46;102364.00;;;5.51;83.02
60852;BME280;48553;50.766;2.900;2023-01-28T16:05:03;102361.25;;;5.46;83.14
60852;BME280;48553;50.766;2.900;2023-01-28T16:08:10;102355.25;;;5.44;83.40
60852;BME280;48553;50.766;2.900;2023-01-28T16:11:12;102364.75;;;5.41;83.34
60852;BME280;48553;50.766;2.900;2023-01-28T16:14:26;102377.78;;;5.39;83.41
60852;BME280;48553;50.766;2.900;2023-01-28T16:17:39;102378.56;;;5.35;83.59
60852;BME280;48553;50.766;2.900;2023-01-28T16:20:40;102385.09;;;5.34;83.54
60852;BME280;48553;50.766;2.900;2023-01-28T16:24:00;102398.94;;;5.32;83.46
60852;BME280;48553;50.766;2.900;2023-01-28T16:27:03;102399.97;;;5.26;83.32
60852;BME280;48553;50.766;2.900;2023-01-28T16:30:04;102403.75;;;5.25;83.19
60852;BME280;48553;50.766;2.900;2023-01-28T16:33:18;102404.00;;;5.23;83.62
60852;BME280;48553;50.766;2.900;2023-01-28T16:36:19;102394.22;;;5.22;83.39
60852;BME280;48553;50.766;2.900;2023-01-28T16:39:20;102400.47;;;5.23;83.43
60852;BME280;48553;50.766;2.900;2023-01-28T16:42:20;102396.63;;;5.19;83.47
60852;BME280;48553;50.766;2.900;2023-01-28T16:45:22;102389.56;;;5.18;83.58
60852;BME280;48553;50.766;2.900;2023-01-28T16:48:23;102388.44;;;5.14;83.69
60852;BME280;48553;50.766;2.900;2023-01-28T16:51:24;102398.22;;;5.15;83.75
60852;BME280;48553;50.766;2.900;2023-01-28T16:54:25;102409.06;;;5.10;84.01
60852;BME280;48553;50.766;2.900;2023-01-28T16:57:26;102415.59;;;5.09;83.99
60852;BME280;48553;50.766;2.900;2023-01-28T17:00:26;102415.31;;;5.10;83.90
60852;BME280;48553;50.766;2.900;2023-01-28T17:03:29;102410.16;;;5.09;83.79
60852;BME280;48553;50.766;2.900;2023-01-28T17:06:29;102396.81;;;5.07;83.95
60852;BME280;48553;50.766;2.900;2023-01-28T17:09:30;102407.94;;;5.06;83.91
60852;BME280;48553;50.766;2.900;2023-01-28T17:12:30;102400.03;;;5.04;83.90
60852;BME280;48553;50.766;2.900;2023-01-28T17:15:33;102394.88;;;5.02;83.92
60852;BME280;48553;50.766;2.900;2023-01-28T17:18:34;102402.13;;;4.97;83.75
60852;BME280;48553;50.766;2.900;2023-01-28T17:21:34;102403.50;;;4.99;83.80
60852;BME280;48553;50.766;2.900;2023-01-28T17:24:34;102416.56;;;4.97;83.87
60852;BME280;48553;50.766;2.900;2023-01-28T17:27:35;102418.19;;;4.98;83.88
60852;BME280;48553;50.766;2.900;2023-01-28T17:30:39;102419.78;;;4.94;83.80
60852;BME280;48553;50.766;2.900;2023-01-28T17:33:40;102420.88;;;4.93;84.05
60852;BME280;48553;50.766;2.900;2023-01-28T17:36:41;102413.19;;;4.90;83.70
60852;BME280;48553;50.766;2.900;2023-01-28T17:39:41;102413.19;;;4.90;83.90
60852;BME280;48553;50.766;2.900;2023-01-28T17:42:42;102408.88;;;4.89;83.81
60852;BME280;48553;50.766;2.900;2023-01-28T17:45:42;102408.53;;;4.86;83.62
60852;BME280;48553;50.766;2.900;2023-01-28T17:48:43;102414.50;;;4.82;83.63
60852;BME280;48553;50.766;2.900;2023-01-28T17:51:44;102410.97;;;4.82;83.85
60852;BME280;48553;50.766;2.900;2023-01-28T17:54:45;102409.31;;;4.81;84.04
60852;BME280;48553;50.766;2.900;2023-01-28T17:57:45;102410.16;;;4.81;83.96
60852;BME280;48553;50.766;2.900;2023-01-28T18:00:46;102411.47;;;4.79;84.13
60852;BME280;48553;50.766;2.900;2023-01-28T18:03:46;102415.50;;;4.76;83.90
60852;BME280;48553;50.766;2.900;2023-01-28T18:06:47;102405.50;;;4.77;84.19
60852;BME280;48553;50.766;2.900;2023-01-28T18:09:48;102411.41;;;4.74;83.91